Impacts TAF Board
For situational awareness. Not to be used for flight planning purposes.
IDs:

KPUW - Pullman/Moscow Rgnl, WA, US

Issued at 0630 UTC 22 Oct 2021
Updated at 0745 UTC 22 Oct 2021
Potential Impact None Slight Moderate High
Time0653Z 22/08Z 22/09Z 22/10Z 22/11Z 22/12Z 22/13Z 22/14Z 22/15Z 22/16Z 22/17Z 22/18Z 22/19Z 22/20Z>>
Type OBS PRVL PRVL PRVL PRVL PRVL PRVL PRVL PRVL PRVL PRVL PRVL PRVL PRVL
VIS 10 >6 >6 >6 >6 >6 >6 >6 >6 >6 >6 >6 >6 >6
CIG -- 100 100 100 100 90 90 90 90 90 90 25 25 25
Cover SCT BKN BKN BKN BKN OVC OVC OVC OVC OVC OVC OVC OVC OVC
FltCat VFR VFR VFR VFR VFR VFR VFR VFR VFR VFR VFR MVFR MVFR MVFR
WX -- VCSH VCSH VCSH VCSH VCSH VCSH VCSH VCSH VCSH VCSH -RA -RA -RA
WDir 100 100 100 100 100 190 190 190 190 190 190 270 270 270
WSpd 17 12 12 12 12 8 8 8 8 8 8 6 6 6
WGst -- -- -- -- -- -- -- -- -- -- -- -- -- --
Raw TAF
KPUW 220630Z 2207/2306 10012KT P6SM VCSH SCT060 BKN100
  FM221200 19008KT P6SM VCSH SCT070 BKN090 OVC120
  FM221800 27006KT P6SM -RA OVC025
  FM230500 26010G15KT P6SM VCSH BKN050


Raw METAR
KPUW 220653Z AUTO 10017KT 10SM SCT100 14/04 A2983 RMK AO2 SLP096 T01440044
KPUW 220553Z AUTO 09014KT 10SM CLR 14/04 A2986 RMK AO2 SLP107 T01390044 10183 20128 58018
KPUW 220453Z AUTO 09013KT 10SM SCT120 14/04 A2989 RMK AO2 SLP118 T01390044

METAR Board
Radar Display
Forecast Discussion
For situational awareness. Not to be used for flight planning purposes.